Whitewater Creek, Colorado (Grand Mesa) Weather observations

Data are for observation ending at time listed.
 Day   Time    Ave.   Ave.  Ave.  Vector   Max.    Total    Solar   Ave.  
  of    of     Air    Rel.  Wind   Wind    Wind   Precip.   Rad.    Soil  
Year   Day     Temp.  Hum.  Speed  Dir.    Gust                     Temp. 
2014   (MST)    F      %     mph   deg.    mph      in.     W/m2     F   
------------------------------------------------------------------------------
 353   19:00   15.0    91    2.2   206      2.2    99999.00   99999    99999.0
 353   19:10   14.7    92    2.2   205      2.2    99999.00   99999    99999.0
 353   19:20   14.9    92    2.2   213      2.2    99999.00   99999    99999.0
 353   19:30   14.8    92    2.2   204      2.2    99999.00   99999    99999.0
 353   19:40   14.6    92    2.2   194      2.2    99999.00   99999    99999.0
 353   19:50   14.1    92    2.2   194      2.2    99999.00   99999    99999.0
 353   20:00   14.2    92    2.2   194      2.2    99999.00   99999    99999.0
 353   20:10   14.0    92    2.2   195      2.2    99999.00   99999    99999.0
 353   20:20   14.1    92    2.3   204      3.5    99999.00   99999    99999.0
 353   20:30   14.3    92    2.3   214      3.5    99999.00   99999    99999.0
 353   20:40   14.2    92    2.3   216      3.5    99999.00   99999    99999.0
 353   20:50   14.3    93    2.3   205      3.5    99999.00   99999    99999.0
 353   21:00   14.1    93    2.3   193      3.5    99999.00   99999    99999.0
 353   21:10   13.7    93    2.3   186      3.5    99999.00   99999    99999.0
 353   21:20   13.6    93    2.2   196      2.2    99999.00   99999    99999.0
 353   21:30   13.0    93    2.2   196      2.2    99999.00   99999    99999.0
 353   21:40   13.1    93    2.2   195      2.2    99999.00   99999    99999.0
 353   21:50   13.5    93    2.2   198      2.2    99999.00   99999    99999.0
 353   22:00   13.6    93    2.3   203      4.8    99999.00   99999    99999.0
 353   22:10   13.9    93    2.2   201      2.2    99999.00   99999    99999.0
 353   22:20   14.0    93    2.2   192      2.2    99999.00   99999    99999.0
 353   22:30   13.6    93    2.2   186      2.2    99999.00   99999    99999.0
 353   22:40   13.4    93    2.3   198      3.5    99999.00   99999    99999.0
 353   22:50   13.5    93    2.2   211      3.5    99999.00   99999    99999.0
 353   23:00   12.7    92    2.5   223      4.8    99999.00   99999    99999.0
 353   23:10   11.4    92    3.2   224      4.8    99999.00   99999    99999.0
 353   23:20   11.1    93    3.9   222      6.1    99999.00   99999    99999.0
 353   23:30   12.6    92    2.2   205      2.2    99999.00   99999    99999.0
 353   23:40   12.8    92    2.3   192      3.5    99999.00   99999    99999.0
 353   23:50   13.3    92    2.3   192      3.5    99999.00   99999    99999.0
 354    0:00   13.2    92    2.2   192      2.2    99999.00   99999    99999.0
 354    0:10   12.5    91    2.2   205      2.2    99999.00   99999    99999.0
 354    0:20   12.7    91    2.2   192      2.2    99999.00   99999    99999.0
 354    0:30   12.2    90    2.2   191      2.2    99999.00   99999    99999.0
 354    0:40   12.1    90    2.2   203      2.2    99999.00   99999    99999.0
 354    0:50   11.7    89    2.2   207      2.2    99999.00   99999    99999.0
 354    1:00   10.8    89    2.2   208      2.2    99999.00   99999    99999.0
 354    1:10   11.1    90    2.2   210      2.2    99999.00   99999    99999.0
 354    1:20   11.8    90    2.2   210      2.2    99999.00   99999    99999.0
 354    1:30   13.4    88    2.2   218      2.2    99999.00   99999    99999.0
 354    1:40   13.5    88    2.2   218      2.2    99999.00   99999    99999.0
 354    1:50   14.7    88    2.2   189      2.2    99999.00   99999    99999.0
 354    2:00   14.7    88    2.4   206      4.8    99999.00   99999    99999.0
 354    2:10   14.3    86    3.2   221      4.8    99999.00   99999    99999.0
 354    2:20   13.3    89    2.2   212      2.2    99999.00   99999    99999.0
 354    2:30   14.7    88    2.2   212      2.2    99999.00   99999    99999.0
 354    2:40   15.1    87    2.2   212      2.2    99999.00   99999    99999.0
 354    2:50   14.3    87    2.2   212      2.2    99999.00   99999    99999.0
 354    3:00   14.5    88    2.2   212      2.2    99999.00   99999    99999.0
 354    3:10   13.9    87    2.2   212      2.2    99999.00   99999    99999.0
 354    3:20   12.4    90    2.2   212      2.2    99999.00   99999    99999.0
 354    3:30   13.6    89    2.2   213      2.2    99999.00   99999    99999.0
 354    3:40   14.2    86    2.2   213      2.2    99999.00   99999    99999.0
 354    3:50   12.4    87    2.2   214      2.2    99999.00   99999    99999.0
 354    4:00   12.6    88    2.2   213      2.2    99999.00   99999    99999.0
 354    4:10   12.1    89    2.2   214      2.2    99999.00   99999    99999.0
 354    4:20   12.0    89    2.2   214      2.2    99999.00   99999    99999.0
 354    4:30   12.9    90    2.2   214      2.2    99999.00   99999    99999.0
 354    4:40   13.4    87    2.2   213      2.2    99999.00   99999    99999.0
 354    4:50   14.3    87    2.2   193      2.2    99999.00   99999    99999.0
 354    5:00   14.4    86    2.2   193      2.2    99999.00   99999    99999.0
 354    5:10   14.4    88    2.2   193      2.2    99999.00   99999    99999.0
 354    5:20   14.8    86    2.2   193      2.2    99999.00   99999    99999.0
 354    5:30   14.6    83    2.2   193      2.2    99999.00   99999    99999.0
 354    5:40   14.2    85    2.2   193      2.2    99999.00   99999    99999.0
 354    5:50   14.3    86    2.2   193      2.2    99999.00   99999    99999.0
 354    6:00   14.5    86    2.2   193      2.2    99999.00   99999    99999.0
 354    6:10   14.3    85    2.2   193      2.2    99999.00   99999    99999.0
 354    6:20   13.8    86    2.2   193      2.2    99999.00   99999    99999.0
 354    6:30   13.3    87    2.2   193      2.2    99999.00   99999    99999.0
 354    6:40   13.5    88    2.2   193      2.2    99999.00   99999    99999.0
 354    6:50   14.1    88    2.2   193      2.2    99999.00   99999    99999.0
 354    7:00   15.0    88    2.2   193      2.2    99999.00   99999    99999.0
 354    7:10   15.1    89    2.2   193      2.2    99999.00   99999    99999.0
 354    7:20   15.3    90    2.2   193      2.2    99999.00   99999    99999.0
 354    7:30   15.9    90    2.2   193      2.2    99999.00   99999    99999.0
 354    7:40   16.3    90    2.2   189      2.2    99999.00   99999    99999.0
 354    7:50   16.3    91    2.2   212      2.2    99999.00   99999    99999.0
 354    8:00   16.5    91    2.2   221      2.2    99999.00   99999    99999.0
 354    8:10   16.4    91    2.2   221      2.2    99999.00   99999    99999.0
 354    8:20   16.4    92    2.2   221      2.2    99999.00   99999    99999.0
 354    8:30   15.7    91    2.2   221      2.2    99999.00   99999    99999.0
 354    8:40   15.5    93    2.2   221      2.2    99999.00   99999    99999.0
 354    8:50   16.5    94    2.2   197      2.2    99999.00   99999    99999.0
 354    9:00   17.8    93    2.2   195      2.2    99999.00   99999    99999.0
 354    9:10   18.0    93    2.2   188      2.2    99999.00   99999    99999.0
 354    9:20   18.8    92    2.2   180      2.2    99999.00   99999    99999.0
 354    9:30   19.2    91    2.2   198      2.2    99999.00   99999    99999.0
 354    9:40   19.6    90    2.2   193      2.2    99999.00   99999    99999.0
 354    9:50   19.7    90    2.2   198      2.2    99999.00   99999    99999.0
 354   10:00   19.9    90    2.2   209      2.2    99999.00   99999    99999.0
 354   10:10   19.8    90    5.0   232      8.6    99999.00   99999    99999.0
 354   10:20   19.6    90    5.9   219      9.9    99999.00   99999    99999.0
 354   10:30   19.7    88    5.3   221      9.9    99999.00   99999    99999.0
 354   10:40   19.9    86    5.4   219      8.6    99999.00   99999    99999.0
 354   10:50   20.5    85    5.3   224      7.4    99999.00   99999    99999.0
 354   11:00   20.5    82    6.9   213      9.9    99999.00   99999    99999.0
 354   11:10   20.5    79    8.8   202     11.2    99999.00   99999    99999.0
 354   11:20   20.5    78   10.2   199     13.8    99999.00   99999    99999.0
 354   11:30   20.6    77   11.2   196     16.3    99999.00   99999    99999.0
 354   11:40   21.0    75   10.2   199     13.8    99999.00   99999    99999.0
 354   11:50   21.5    74    8.8   200     13.8    99999.00   99999    99999.0
 354   12:00   21.9    72    9.4   198     12.5    99999.00   99999    99999.0
 354   12:10   22.2    72    9.3   197     12.5    99999.00   99999    99999.0
 354   12:20   22.7    71    9.2   197     12.5    99999.00   99999    99999.0
 354   12:30   23.8    69    8.6   203     11.2    99999.00   99999    99999.0
 354   12:40   23.9    68    9.4   200     12.5    99999.00   99999    99999.0
 354   12:50   23.9    67    8.7   207     12.5    99999.00   99999    99999.0
 354   13:00   23.8    68    8.8   215     12.5    99999.00   99999    99999.0
 354   13:10   23.8    68    8.7   218     11.2    99999.00   99999    99999.0
 354   13:20   23.6    69   10.4   212     13.8    99999.00   99999    99999.0
 354   13:30   23.4    70    9.5   214     12.5    99999.00   99999    99999.0
 354   13:40   23.7    70   10.4   207     13.8    99999.00   99999    99999.0
 354   13:50   24.3    70    9.2   208     12.5    99999.00   99999    99999.0
 354   14:00   24.6    68    8.4   208     11.2    99999.00   99999    99999.0
 354   14:10   24.2    69    7.1   218      8.6    99999.00   99999    99999.0
 354   14:20   23.7    74    7.1   221      9.9    99999.00   99999    99999.0
 354   14:30   23.3    76    6.4   220      8.6    99999.00   99999    99999.0
 354   14:40   22.7    74    7.3   213      9.9    99999.00   99999    99999.0
 354   14:50   22.3    74    7.2   213      9.9    99999.00   99999    99999.0
 354   15:00   22.5    74    7.4   215      9.9    99999.00   99999    99999.0
 354   15:10   22.5    77    6.5   221      8.6    99999.00   99999    99999.0
 354   15:20   21.6    80    6.4   214      8.6    99999.00   99999    99999.0
 354   15:30   21.5    76    6.5   198     11.2    99999.00   99999    99999.0
 354   15:40   21.8    78    6.6   199      9.9    99999.00   99999    99999.0
 354   15:50   21.5    80    6.7   198      9.9    99999.00   99999    99999.0
 354   16:00   21.4    81    7.8   207     11.2    99999.00   99999    99999.0
 354   16:10   21.1    83    7.0   208      9.9    99999.00   99999    99999.0
 354   16:20   20.8    84    5.5   217      7.4    99999.00   99999    99999.0
 354   16:30   20.9    84    6.8   206      9.9    99999.00   99999    99999.0
 354   16:40   21.0    85    5.7   199      9.9    99999.00   99999    99999.0
 354   16:50   20.9    85    4.7   220      7.4    99999.00   99999    99999.0
 354   17:00   20.8    86    6.9   218      8.6    99999.00   99999    99999.0
 354   17:10   20.6    88    8.9   211     12.5    99999.00   99999    99999.0
 354   17:20   20.6    89    7.9   197     12.5    99999.00   99999    99999.0
 354   17:30   20.9    89    9.1   188     12.5    99999.00   99999    99999.0
 354   17:40   21.1    90   10.7   199     13.8    99999.00   99999    99999.0
 354   17:50   21.0    91    9.3   205     12.5    99999.00   99999    99999.0
 354   18:00   20.6    92    7.0   218      9.9    99999.00   99999    99999.0
 354   18:10   20.4    94    7.4   216     11.2    99999.00   99999    99999.0
 354   18:20   20.1    94   10.8   210     13.8    99999.00   99999    99999.0
 354   18:30   20.1    95   10.6   211     13.8    99999.00   99999    99999.0
 354   18:40   20.2    95   10.5   220     13.8    99999.00   99999    99999.0
 354   18:50   20.2    95   11.8   211     15.0    99999.00   99999    99999.0

Return to Whitewater Creek, Colorado graphs page.


Western Regional Climate Center,wrcc@dri.edu